Belgium, WI (53004)

1:31 PM CDT on May 27, 2015 (GMT -0500)
Silver Beach | | Change Station
CLOSE
Current Station
Personal Weather Station
Location: Belgium, WI
Elevation: 614 ft
Nearby Weather Stations

Elev 614 ft 43.51 °N, 87.79 °W | Updated 43 minutes ago

Overcast
Overcast
68.9 °F
Feels Like 68.9 °F
N
6.3
Wind Variable Wind from West

Today
High -- | Low -- °F
--% Chance of Precip.
Yesterday
High -- | Low -- °F
Precip. -- in
5:16 AM 8:21 PM
Waxing Gibbous, 69% visible
Pressure 29.97 in
Visibility 10.0 miles
Clouds Scattered Clouds 2600 ft
Scattered Clouds 3200 ft
Mostly Cloudy 8000 ft
Dew Point 58 °F
Humidity 69%
Rainfall 0.00 in
Snow Depth Not available.
UV 6 out of 12
Pollen 7.90 out of 12
Air Quality Not available.
Flu Activity Sporadic
METAR KETB 271815Z AUTO 33011G18KT 10SM SCT026 SCT032 BKN080 20/12 A2997 RMK AO2

More Conditions Fewer Conditions

Pressure 29.97 in
Visibility 10.0 miles
Clouds Scattered Clouds 2600 ft
Scattered Clouds 3200 ft
Mostly Cloudy 8000 ft
Dew Point 58 °F
Humidity 69%
Rainfall 0.00 in
Snow Depth Not available.
UV 6 out of 12
Pollen 7.90 out of 12
Air Quality Not available.
Flu Activity Sporadic
METAR KETB 271815Z AUTO 33011G18KT 10SM SCT026 SCT032 BKN080 20/12 A2997 RMK AO2

More Conditions Fewer Conditions

10-Day Weather Forecast

Almanac

Astronomy

May. 27, 2015 Rise Set
Actual Time
Civil Twilight
Nautical Twilight
Astronomical Twilight
Moon
Length of Visible Light
Length of Day
Tomorrow will be .
, % of the Moon is Illuminated

Today's Extremes

State Highs State Lows

Community

WunderPhotos

Upload Photos

1,824,752 photos uploaded!

WunderBlogs® & News

Nearby

Air Quality

  Air Quality AQ Index Pollutant
Not available.

Snow Depth

Station Depth Elevation

Earthquake Activity

City Distance Mag. Time & Date
Minimum magnitude displayed is 2.5.

Coastal Water Temperatures

Place Temperature

Stations

Nearby Weather Stations

Station Location Temp. Windchill Dew Point Humidity Wind Precip. Elev Updated Type